createdAt,value
2022-09-28T00:00:24.814Z,8.43
2022-09-28T00:02:52.675Z,8.80
2022-09-28T00:05:19.487Z,9.30
2022-09-28T00:07:46.999Z,8.10
2022-09-28T00:10:13.735Z,12.32
2022-09-28T00:12:40.548Z,7.13
2022-09-28T00:15:08.152Z,7.55
2022-09-28T00:17:36.520Z,7.55
2022-09-28T00:20:05.461Z,8.80
2022-09-28T00:22:32.157Z,5.50
2022-09-28T00:24:58.902Z,5.90
2022-09-28T00:27:25.597Z,4.78
2022-09-28T00:29:52.338Z,4.72
2022-09-28T00:32:20.950Z,5.93
2022-09-28T00:34:49.030Z,5.95
2022-09-28T00:37:15.773Z,5.57
2022-09-28T00:39:43.593Z,6.63
2022-09-28T00:42:22.530Z,5.40
2022-09-28T00:44:59.229Z,5.47
2022-09-28T00:47:34.851Z,6.60
2022-09-28T00:50:03.290Z,5.43
2022-09-28T00:52:42.799Z,6.45
2022-09-28T00:55:15.016Z,6.32
2022-09-28T00:57:46.923Z,4.32
2022-09-28T01:00:14.134Z,5.80
2022-09-28T01:02:41.886Z,7.15
2022-09-28T01:05:10.511Z,4.95
2022-09-28T01:07:38.281Z,4.18
2022-09-28T01:10:07.500Z,5.75
2022-09-28T01:12:34.383Z,5.57
2022-09-28T01:15:02.054Z,3.70
2022-09-28T01:17:50.324Z,4.97
2022-09-28T01:20:32.272Z,4.03
2022-09-28T01:23:13.103Z,4.38
2022-09-28T01:26:10.690Z,5.07
2022-09-28T01:28:38.185Z,8.23
2022-09-28T01:31:13.430Z,4.90
2022-09-28T01:33:52.393Z,4.55
2022-09-28T01:36:27.789Z,5.28
2022-09-28T01:39:06.244Z,8.30
2022-09-28T01:41:36.864Z,5.72
2022-09-28T01:44:06.209Z,4.00
2022-09-28T01:46:44.978Z,3.63
2022-09-28T01:49:19.834Z,5.53
2022-09-28T01:52:00.413Z,3.25
2022-09-28T01:54:38.382Z,5.63
2022-09-28T01:57:14.409Z,5.35
2022-09-28T01:59:46.624Z,4.32
2022-09-28T02:02:18.877Z,5.20
2022-09-28T02:04:54.098Z,3.65
2022-09-28T02:07:29.043Z,4.03
2022-09-28T02:10:04.506Z,3.25
2022-09-28T02:13:10.626Z,5.32
2022-09-28T02:16:03.496Z,5.75
2022-09-28T02:18:30.463Z,3.80
2022-09-28T02:21:05.488Z,3.00
2022-09-28T02:23:36.332Z,3.70
2022-09-28T02:26:08.767Z,5.45
2022-09-28T02:28:35.528Z,4.97
2022-09-28T02:31:02.458Z,3.70
2022-09-28T02:33:38.908Z,7.78
2022-09-28T02:36:05.961Z,4.68
2022-09-28T02:38:32.802Z,4.10
2022-09-28T02:41:19.758Z,5.05
2022-09-28T02:44:15.727Z,5.47
2022-09-28T02:47:22.040Z,5.03
2022-09-28T02:50:01.249Z,3.97
2022-09-28T02:52:38.445Z,3.30
2022-09-28T02:55:39.810Z,5.95
2022-09-28T02:58:09.551Z,5.50
2022-09-28T03:00:47.150Z,4.50
2022-09-28T03:04:03.250Z,3.72
2022-09-28T03:06:50.189Z,2.70
2022-09-28T03:09:22.867Z,5.97
2022-09-28T03:11:55.544Z,5.32
2022-09-28T03:14:23.042Z,3.97
2022-09-28T03:16:49.771Z,4.65
2022-09-28T03:19:19.316Z,7.63
2022-09-28T03:21:46.068Z,8.73
2022-09-28T03:24:13.233Z,4.93
2022-09-28T03:26:39.984Z,5.63
2022-09-28T03:29:06.990Z,7.05
2022-09-28T03:31:33.792Z,2.70
2022-09-28T03:34:00.576Z,3.22
2022-09-28T03:36:27.317Z,6.90
2022-09-28T03:38:56.798Z,3.08
2022-09-28T03:41:28.051Z,4.32
2022-09-28T03:43:55.018Z,3.13
2022-09-28T03:46:21.869Z,6.25
2022-09-28T03:48:48.599Z,3.45
2022-09-28T03:51:15.435Z,6.45
2022-09-28T03:53:42.270Z,4.15
2022-09-28T03:56:12.425Z,7.22
2022-09-28T03:58:39.336Z,3.30
2022-09-28T04:01:12.955Z,5.45
2022-09-28T04:03:42.907Z,5.00
2022-09-28T04:06:10.183Z,4.43
2022-09-28T04:08:36.936Z,4.65
2022-09-28T04:11:03.773Z,3.22
2022-09-28T04:13:30.741Z,7.32
2022-09-28T04:15:59.598Z,3.22
2022-09-28T04:18:26.651Z,3.03
2022-09-28T04:21:09.153Z,4.47
2022-09-28T04:23:37.529Z,6.45
2022-09-28T04:26:06.595Z,4.43
2022-09-28T04:28:52.908Z,5.78
2022-09-28T04:31:24.712Z,8.07
2022-09-28T04:33:51.468Z,6.88
2022-09-28T04:36:19.939Z,6.85
2022-09-28T04:38:53.319Z,4.72
2022-09-28T04:41:22.649Z,6.85
2022-09-28T04:43:50.290Z,3.95
2022-09-28T04:46:17.711Z,5.18
2022-09-28T04:48:44.759Z,5.05
2022-09-28T04:51:11.613Z,5.22
2022-09-28T04:53:38.562Z,5.57
2022-09-28T04:56:08.126Z,6.13
2022-09-28T04:58:36.115Z,4.78
2022-09-28T05:01:07.130Z,3.13
2022-09-28T05:03:34.456Z,3.72
2022-09-28T05:06:01.726Z,3.88
2022-09-28T05:08:29.201Z,13.27
2022-09-28T05:11:00.907Z,8.90
2022-09-28T05:13:30.371Z,5.18
2022-09-28T05:16:04.408Z,4.95
2022-09-28T05:18:32.324Z,5.32
2022-09-28T05:20:59.167Z,4.35
2022-09-28T05:23:25.972Z,7.30
2022-09-28T05:25:52.792Z,4.75
2022-09-28T05:28:29.119Z,8.43
2022-09-28T05:31:04.150Z,5.18
2022-09-28T05:33:32.767Z,5.22
2022-09-28T05:36:01.547Z,6.88
2022-09-28T05:38:29.954Z,4.57
2022-09-28T05:40:57.153Z,6.55
2022-09-28T05:43:24.104Z,4.63
2022-09-28T05:45:55.410Z,7.57
2022-09-28T05:48:23.295Z,5.38
2022-09-28T05:50:53.136Z,2.80
2022-09-28T05:53:20.445Z,6.22
2022-09-28T05:55:47.538Z,4.93
2022-09-28T05:58:14.728Z,4.85
2022-09-28T06:00:41.454Z,4.28
2022-09-28T06:03:11.890Z,3.35
2022-09-28T06:05:42.123Z,3.30
2022-09-28T06:08:10.923Z,4.13
2022-09-28T06:10:38.414Z,4.95
2022-09-28T06:13:06.671Z,3.30
2022-09-28T06:15:35.370Z,3.35
2022-09-28T06:18:07.693Z,3.38
2022-09-28T06:20:36.634Z,2.97
2022-09-28T06:23:03.525Z,3.83
2022-09-28T06:25:30.270Z,6.05
2022-09-28T06:28:04.241Z,2.80
2022-09-28T06:30:34.240Z,4.07
2022-09-28T06:33:02.117Z,4.03
2022-09-28T06:35:31.003Z,7.70
2022-09-28T06:37:59.560Z,4.45
2022-09-28T06:40:27.513Z,3.35
2022-09-28T06:45:27.226Z,2.90
2022-09-28T06:48:01.718Z,3.70
2022-09-28T06:50:32.482Z,5.78
2022-09-28T06:53:00.815Z,1.77
2022-09-28T06:55:28.658Z,3.17
2022-09-28T06:58:04.046Z,1.58
2022-09-28T07:00:34.147Z,3.40
2022-09-28T07:03:06.842Z,3.92
2022-09-28T07:05:37.066Z,4.00
2022-09-28T07:08:06.770Z,3.78
2022-09-28T07:10:33.731Z,3.72
2022-09-28T07:13:05.074Z,8.60
2022-09-28T07:15:32.846Z,3.05
2022-09-28T07:18:03.926Z,1.98
2022-09-28T07:20:40.875Z,2.35
2022-09-28T07:23:19.106Z,3.17
2022-09-28T07:25:52.128Z,1.40
2022-09-28T07:28:20.085Z,1.60
2022-09-28T07:30:47.765Z,1.50
2022-09-28T07:33:16.181Z,3.70
2022-09-28T07:35:50.898Z,1.10
2022-09-28T07:38:17.656Z,3.13
2022-09-28T07:41:02.836Z,1.42
2022-09-28T07:43:29.599Z,2.03
2022-09-28T07:45:56.411Z,2.13
2022-09-28T07:48:23.339Z,3.53
2022-09-28T07:50:55.214Z,1.48
2022-09-28T07:53:23.772Z,0.98
2022-09-28T07:56:02.245Z,3.13
2022-09-28T07:58:29.561Z,2.28
2022-09-28T08:00:56.425Z,2.83
2022-09-28T08:03:23.179Z,1.45
2022-09-28T08:05:49.972Z,2.10
2022-09-28T08:08:16.750Z,1.77
2022-09-28T08:10:46.974Z,3.85
2022-09-28T08:13:15.348Z,2.20
2022-09-28T08:15:42.756Z,3.17
2022-09-28T08:18:10.089Z,3.22
2022-09-28T08:20:55.628Z,1.15
2022-09-28T08:23:23.461Z,2.50
2022-09-28T08:25:54.232Z,2.88
2022-09-28T08:28:23.296Z,1.80
2022-09-28T08:30:50.577Z,1.20
2022-09-28T08:33:18.786Z,1.10
2022-09-28T08:35:46.929Z,1.77
2022-09-28T08:38:14.254Z,2.17
2022-09-28T08:40:47.500Z,1.30
2022-09-28T08:43:34.176Z,1.92
2022-09-28T08:46:01.591Z,2.75
2022-09-28T08:48:51.805Z,1.33
2022-09-28T08:51:33.383Z,1.13
2022-09-28T08:54:12.005Z,7.20
2022-09-28T08:56:49.373Z,1.13
2022-09-28T08:59:24.650Z,1.77
2022-09-28T09:01:58.008Z,2.22
2022-09-28T09:04:25.921Z,1.27
2022-09-28T09:07:20.581Z,3.63
2022-09-28T09:09:50.127Z,1.85
2022-09-28T09:12:23.050Z,1.13
2022-09-28T09:15:01.843Z,2.03
2022-09-28T09:17:55.593Z,0.68
2022-09-28T09:20:56.751Z,3.10
2022-09-28T09:23:37.482Z,1.90
2022-09-28T09:26:25.461Z,2.03
2022-09-28T09:29:23.676Z,2.17
2022-09-28T09:31:59.701Z,1.08
2022-09-28T09:34:47.866Z,5.10
2022-09-28T09:37:22.677Z,0.60
2022-09-28T09:40:03.965Z,0.93
2022-09-28T09:43:08.696Z,0.98
2022-09-28T09:45:50.606Z,1.13
2022-09-28T09:48:33.127Z,2.05
2022-09-28T09:51:06.671Z,2.00
2022-09-28T09:53:40.789Z,1.02
2022-09-28T09:56:20.747Z,1.33
2022-09-28T09:58:53.719Z,1.35
2022-09-28T10:01:30.161Z,1.98
2022-09-28T10:03:59.148Z,0.93
2022-09-28T10:06:33.554Z,0.70
2022-09-28T10:09:23.955Z,3.70
2022-09-28T10:11:52.186Z,2.40
2022-09-28T10:14:22.399Z,0.75
2022-09-28T10:16:55.721Z,0.82
2022-09-28T10:19:30.802Z,0.75
2022-09-28T10:22:00.199Z,3.08
2022-09-28T10:24:35.907Z,0.73
2022-09-28T10:27:08.776Z,2.83
2022-09-28T10:29:57.914Z,0.70
2022-09-28T10:32:27.932Z,1.27
2022-09-28T10:35:21.724Z,2.63
2022-09-28T10:38:00.520Z,2.20
2022-09-28T10:40:46.654Z,1.50
2022-09-28T10:43:16.142Z,1.58
2022-09-28T10:45:43.215Z,0.95
2022-09-28T10:48:58.046Z,0.80
2022-09-28T10:51:51.892Z,0.90
2022-09-28T10:54:20.345Z,1.02
2022-09-28T10:56:48.113Z,1.10
2022-09-28T10:59:29.911Z,0.80
2022-09-28T11:02:32.323Z,0.68
2022-09-28T11:05:04.202Z,2.35
2022-09-28T11:07:34.179Z,0.88
2022-09-28T11:10:02.104Z,4.68
2022-09-28T11:12:43.273Z,1.30
2022-09-28T11:15:22.039Z,0.93
2022-09-28T11:17:48.740Z,0.63
2022-09-28T11:20:27.538Z,1.63
2022-09-28T11:23:14.680Z,0.77
2022-09-28T11:25:41.918Z,1.52
2022-09-28T11:28:22.470Z,0.93
2022-09-28T11:30:52.841Z,1.17
2022-09-28T11:33:29.025Z,1.23
2022-09-28T11:36:13.912Z,0.68
2022-09-28T11:38:49.292Z,2.20
2022-09-28T11:41:37.032Z,4.57
2022-09-28T11:44:28.168Z,1.77
2022-09-28T11:47:21.269Z,1.48
2022-09-28T11:50:17.945Z,3.08
2022-09-28T11:53:17.010Z,2.38
2022-09-28T11:56:22.043Z,1.65
2022-09-28T11:58:57.306Z,1.58
2022-09-28T12:01:35.709Z,3.22
2022-09-28T12:04:14.663Z,1.95
2022-09-28T12:06:49.802Z,2.42
2022-09-28T12:09:28.774Z,1.60
2022-09-28T12:12:02.132Z,2.58
2022-09-28T12:14:34.431Z,1.33
2022-09-28T12:17:21.323Z,2.60
2022-09-28T12:20:25.900Z,1.48
2022-09-28T12:23:00.037Z,1.65
2022-09-28T12:25:29.691Z,0.70
2022-09-28T12:28:01.340Z,1.20
2022-09-28T12:30:34.497Z,0.80
2022-09-28T12:33:12.327Z,1.42
2022-09-28T12:35:51.204Z,0.73
2022-09-28T12:39:21.682Z,1.75
2022-09-28T12:42:17.258Z,2.63
2022-09-28T12:44:59.522Z,0.70
2022-09-28T12:48:03.255Z,0.95
2022-09-28T12:50:39.135Z,1.52
2022-09-28T12:53:44.971Z,6.25
2022-09-28T12:56:22.779Z,2.83
2022-09-28T12:59:18.366Z,1.38
2022-09-28T13:02:09.957Z,4.22
2022-09-28T13:07:39.890Z,2.03
2022-09-28T13:10:41.136Z,3.35
2022-09-28T13:13:53.177Z,1.13
2022-09-28T13:16:35.944Z,1.42
2022-09-28T13:19:32.315Z,1.20
2022-09-28T13:22:14.309Z,2.15
2022-09-28T13:24:44.511Z,2.65
2022-09-28T13:27:19.479Z,3.00
2022-09-28T13:29:51.221Z,2.88
2022-09-28T13:32:19.128Z,1.10
2022-09-28T13:34:49.071Z,4.55
2022-09-28T13:37:20.189Z,2.00
2022-09-28T13:39:52.319Z,2.97
2022-09-28T13:42:47.493Z,1.90
2022-09-28T13:45:23.206Z,4.15
2022-09-28T13:48:06.245Z,3.17
2022-09-28T13:51:14.811Z,1.55
2022-09-28T13:53:53.595Z,3.20
2022-09-28T13:56:36.339Z,2.25
2022-09-28T13:59:18.901Z,3.08
2022-09-28T14:02:07.295Z,1.95
2022-09-28T14:05:02.867Z,1.02
2022-09-28T14:07:35.761Z,2.92
2022-09-28T14:10:24.691Z,3.08
2022-09-28T14:12:53.103Z,1.60
2022-09-28T14:15:29.046Z,2.35
2022-09-28T14:18:20.363Z,1.70
2022-09-28T14:21:13.958Z,2.03
2022-09-28T14:24:08.267Z,1.48
2022-09-28T14:27:04.045Z,1.80
2022-09-28T14:29:34.444Z,1.13
2022-09-28T14:32:10.299Z,2.88
2022-09-28T14:34:41.685Z,1.80
2022-09-28T14:40:40.276Z,3.20
2022-09-28T14:43:37.545Z,3.92
2022-09-28T14:46:14.695Z,2.08
2022-09-28T14:48:48.738Z,2.03
2022-09-28T14:51:27.593Z,2.38
2022-09-28T14:54:02.567Z,2.50
2022-09-28T14:56:34.148Z,2.72
2022-09-28T14:59:01.002Z,2.88
2022-09-28T15:01:28.029Z,5.30
2022-09-28T15:03:59.126Z,2.72
2022-09-28T15:06:29.122Z,3.33
2022-09-28T15:08:55.798Z,2.17
2022-09-28T15:11:25.557Z,4.78
2022-09-28T15:14:06.504Z,3.22
2022-09-28T15:16:33.723Z,9.82
2022-09-28T15:19:19.562Z,12.93
2022-09-28T15:21:48.785Z,23.45
2022-09-28T15:24:32.150Z,11.45
2022-09-28T15:27:00.488Z,8.07
2022-09-28T15:29:34.389Z,3.30
2022-09-28T15:32:01.254Z,3.60
2022-09-28T15:34:48.821Z,4.88
2022-09-28T15:37:19.142Z,3.13
2022-09-28T15:39:48.356Z,4.80
2022-09-28T15:42:17.124Z,5.28
2022-09-28T15:45:02.148Z,3.17
2022-09-28T15:47:30.260Z,2.75
2022-09-28T15:50:00.821Z,3.35
2022-09-28T15:52:45.088Z,4.78
2022-09-28T15:55:26.485Z,6.28
2022-09-28T15:58:22.793Z,2.70
2022-09-28T16:00:51.886Z,6.32
2022-09-28T16:03:32.088Z,5.65
2022-09-28T16:05:58.814Z,5.30
2022-09-28T16:08:33.108Z,5.15
2022-09-28T16:11:11.644Z,3.45
2022-09-28T16:13:52.235Z,7.30
2022-09-28T16:16:26.219Z,4.22
2022-09-28T16:18:55.597Z,5.32
2022-09-28T16:21:43.758Z,7.57
2022-09-28T16:24:23.524Z,4.57
2022-09-28T16:26:58.176Z,2.67
2022-09-28T16:29:43.964Z,7.00
2022-09-28T16:32:25.786Z,5.60
2022-09-28T16:35:07.967Z,6.32
2022-09-28T16:37:34.718Z,4.90
2022-09-28T16:40:01.577Z,5.50
2022-09-28T16:42:28.560Z,4.75
2022-09-28T16:44:56.413Z,4.65
2022-09-28T16:47:23.851Z,4.65
2022-09-28T16:49:51.723Z,2.83
2022-09-28T16:52:38.386Z,2.70
2022-09-28T16:58:05.015Z,2.95
2022-09-28T17:00:32.574Z,10.90
2022-09-28T17:02:59.624Z,3.63
2022-09-28T17:05:26.446Z,4.85
2022-09-28T17:08:03.739Z,3.65
2022-09-28T17:11:18.105Z,4.22
2022-09-28T17:13:47.304Z,3.47
2022-09-28T17:16:28.161Z,3.55
2022-09-28T17:19:03.814Z,5.13
2022-09-28T17:21:31.365Z,7.03
2022-09-28T17:23:58.060Z,4.32
2022-09-28T17:26:30.852Z,6.30
2022-09-28T17:29:07.335Z,23.83
2022-09-28T17:31:34.256Z,21.33
2022-09-28T17:34:00.992Z,12.88
2022-09-28T17:36:28.171Z,10.52
2022-09-28T17:38:54.914Z,5.80
2022-09-28T17:41:21.676Z,6.63
2022-09-28T17:43:49.290Z,5.05
2022-09-28T17:46:33.931Z,5.38
2022-09-28T17:49:02.750Z,6.40
2022-09-28T17:51:32.801Z,4.22
2022-09-28T17:54:01.208Z,6.80
2022-09-28T17:56:32.057Z,3.78
2022-09-28T17:59:05.704Z,5.15
2022-09-28T18:01:37.237Z,4.57
2022-09-28T18:06:33.884Z,4.57
2022-09-28T18:09:03.214Z,3.58
2022-09-28T18:11:31.457Z,3.90
2022-09-28T18:13:58.610Z,5.13
2022-09-28T18:16:28.028Z,6.40
2022-09-28T18:18:55.076Z,3.88
2022-09-28T18:21:21.943Z,5.93
2022-09-28T18:23:48.771Z,8.32
2022-09-28T18:26:16.946Z,5.78
2022-09-28T18:28:43.754Z,5.43
2022-09-28T18:31:14.531Z,5.75
2022-09-28T18:33:42.059Z,5.55
2022-09-28T18:36:08.967Z,4.60
2022-09-28T18:38:36.936Z,5.63
2022-09-28T18:41:14.599Z,5.82
2022-09-28T18:43:42.264Z,8.23
2022-09-28T18:46:10.977Z,6.80
2022-09-28T18:48:40.658Z,5.43
2022-09-28T18:51:12.414Z,5.13
2022-09-28T18:53:40.284Z,7.22
2022-09-28T18:56:13.319Z,4.07
2022-09-28T18:58:41.622Z,6.30
2022-09-28T19:01:31.365Z,5.30
2022-09-28T19:04:00.392Z,6.63
2022-09-28T19:06:27.974Z,6.18
2022-09-28T19:08:55.916Z,7.25
2022-09-28T19:11:23.264Z,7.03
2022-09-28T19:13:50.569Z,6.28
2022-09-28T19:16:24.266Z,5.38
2022-09-28T19:18:52.561Z,10.80
2022-09-28T19:21:20.223Z,4.25
2022-09-28T19:23:49.667Z,11.27
2022-09-28T19:26:22.618Z,7.05
2022-09-28T19:28:49.874Z,4.22
2022-09-28T19:31:16.997Z,7.55
2022-09-28T19:33:46.131Z,6.20
2022-09-28T19:36:15.520Z,5.95
2022-09-28T19:38:42.502Z,7.50
2022-09-28T19:42:04.265Z,6.95
2022-09-28T19:44:31.376Z,6.53
2022-09-28T19:47:00.298Z,6.32
2022-09-28T19:49:33.119Z,6.95
2022-09-28T19:52:16.089Z,5.80
2022-09-28T19:54:56.748Z,8.35
2022-09-28T19:57:29.390Z,7.22
2022-09-28T20:00:01.793Z,7.50
2022-09-28T20:02:29.511Z,6.68
2022-09-28T20:04:56.316Z,7.22
2022-09-28T20:07:23.078Z,8.02
2022-09-28T20:09:49.760Z,6.00
2022-09-28T20:12:16.679Z,7.38
2022-09-28T20:14:43.338Z,5.63
2022-09-28T20:17:10.074Z,5.60
2022-09-28T20:19:36.863Z,7.65
2022-09-28T20:22:03.958Z,5.60
2022-09-28T20:24:31.737Z,6.07
2022-09-28T20:26:58.524Z,7.15
2022-09-28T20:29:25.487Z,8.60
2022-09-28T20:31:52.577Z,7.07
2022-09-28T20:34:19.408Z,6.35
2022-09-28T20:36:46.216Z,7.32
2022-09-28T20:39:13.484Z,8.02
2022-09-28T20:41:40.497Z,9.32
2022-09-28T20:44:07.704Z,7.07
2022-09-28T20:46:36.115Z,8.30
2022-09-28T20:49:03.720Z,8.30
2022-09-28T20:51:30.754Z,8.32
2022-09-28T20:53:59.039Z,9.98
2022-09-28T20:56:39.501Z,10.93
2022-09-28T20:59:11.900Z,10.57
2022-09-28T21:01:39.264Z,8.95
2022-09-28T21:04:07.787Z,7.90
2022-09-28T21:06:36.758Z,9.43
2022-09-28T21:09:05.580Z,8.05
2022-09-28T21:11:33.181Z,12.15
2022-09-28T21:14:01.953Z,7.15
2022-09-28T21:16:31.105Z,7.30
2022-09-28T21:18:58.538Z,12.05
2022-09-28T21:21:26.770Z,11.32
2022-09-28T21:23:54.548Z,10.23
2022-09-28T21:26:26.491Z,7.97
2022-09-28T21:28:54.144Z,9.07
2022-09-28T21:31:24.907Z,8.40
2022-09-28T21:33:55.367Z,7.80
2022-09-28T21:36:22.103Z,8.75
2022-09-28T21:38:49.490Z,10.18
2022-09-28T21:41:16.483Z,8.82
2022-09-28T21:43:43.338Z,9.57
2022-09-28T21:46:10.251Z,7.90
2022-09-28T21:48:37.050Z,9.85
2022-09-28T21:51:06.126Z,11.02
2022-09-28T21:53:35.111Z,10.63
2022-09-28T21:56:03.731Z,9.45
2022-09-28T21:58:33.732Z,10.05
2022-09-28T22:01:08.454Z,10.20
2022-09-28T22:03:36.725Z,11.43
2022-09-28T22:06:04.907Z,8.05
2022-09-28T22:08:32.649Z,9.88
2022-09-28T22:11:01.404Z,10.23
2022-09-28T22:13:33.212Z,11.70
2022-09-28T22:16:00.935Z,11.38
2022-09-28T22:18:29.687Z,10.48
2022-09-28T22:21:03.466Z,12.32
2022-09-28T22:23:30.632Z,11.15
2022-09-28T22:26:01.980Z,12.15
2022-09-28T22:28:29.232Z,10.40
2022-09-28T22:30:57.256Z,10.50
2022-09-28T22:33:24.888Z,12.65
2022-09-28T22:35:51.664Z,12.00
2022-09-28T22:38:19.315Z,13.25
2022-09-28T22:40:55.610Z,10.70
2022-09-28T22:43:23.731Z,14.63
2022-09-28T22:45:51.349Z,13.63
2022-09-28T22:48:18.701Z,13.95
2022-09-28T22:50:51.685Z,12.45
2022-09-28T22:53:19.156Z,12.32
2022-09-28T22:55:46.018Z,12.40
2022-09-28T22:58:12.938Z,12.60
2022-09-28T23:00:39.713Z,13.60
2022-09-28T23:03:06.553Z,12.77
2022-09-28T23:05:33.269Z,15.02
2022-09-28T23:08:00.001Z,12.15
2022-09-28T23:10:26.724Z,13.55
